sensor_id;sensor_type;location;lat;lon;timestamp;P1;durP1;ratioP1;P2;durP2;ratioP2
29414;SDS011;20303;48.302;11.914;2022-11-11T00:06:29;10.32;;;6.32;;
29414;SDS011;20303;48.302;11.914;2022-11-11T00:16:30;9.63;;;5.72;;
29414;SDS011;20303;48.302;11.914;2022-11-11T00:26:51;8.48;;;5.40;;
29414;SDS011;20303;48.302;11.914;2022-11-11T00:36:52;9.93;;;5.63;;
29414;SDS011;20303;48.302;11.914;2022-11-11T00:46:53;8.10;;;5.43;;
29414;SDS011;20303;48.302;11.914;2022-11-11T00:57:13;7.97;;;5.15;;
29414;SDS011;20303;48.302;11.914;2022-11-11T01:07:14;7.50;;;4.78;;
29414;SDS011;20303;48.302;11.914;2022-11-11T01:17:15;8.25;;;5.25;;
29414;SDS011;20303;48.302;11.914;2022-11-11T01:27:16;5.93;;;4.53;;
29414;SDS011;20303;48.302;11.914;2022-11-11T01:37:17;7.57;;;4.28;;
29414;SDS011;20303;48.302;11.914;2022-11-11T01:47:18;7.35;;;4.45;;
29414;SDS011;20303;48.302;11.914;2022-11-11T02:07:25;5.53;;;3.90;;
29414;SDS011;20303;48.302;11.914;2022-11-11T02:17:27;5.28;;;4.00;;
29414;SDS011;20303;48.302;11.914;2022-11-11T02:27:29;5.00;;;3.88;;
29414;SDS011;20303;48.302;11.914;2022-11-11T02:37:31;5.40;;;3.70;;
29414;SDS011;20303;48.302;11.914;2022-11-11T02:47:32;4.85;;;3.40;;
29414;SDS011;20303;48.302;11.914;2022-11-11T02:57:33;4.32;;;3.42;;
29414;SDS011;20303;48.302;11.914;2022-11-11T03:07:34;4.32;;;3.22;;
29414;SDS011;20303;48.302;11.914;2022-11-11T03:17:35;3.83;;;3.03;;
29414;SDS011;20303;48.302;11.914;2022-11-11T03:27:40;5.47;;;3.35;;
29414;SDS011;20303;48.302;11.914;2022-11-11T03:37:41;4.07;;;3.13;;
29414;SDS011;20303;48.302;11.914;2022-11-11T03:48:01;5.10;;;3.10;;
29414;SDS011;20303;48.302;11.914;2022-11-11T03:58:02;3.92;;;2.72;;
29414;SDS011;20303;48.302;11.914;2022-11-11T04:08:03;3.95;;;2.80;;
29414;SDS011;20303;48.302;11.914;2022-11-11T04:18:22;5.38;;;2.95;;
29414;SDS011;20303;48.302;11.914;2022-11-11T04:28:43;3.22;;;2.50;;
29414;SDS011;20303;48.302;11.914;2022-11-11T04:39:03;2.88;;;2.40;;
29414;SDS011;20303;48.302;11.914;2022-11-11T04:49:23;3.25;;;2.25;;
29414;SDS011;20303;48.302;11.914;2022-11-11T04:59:24;3.85;;;2.40;;
29414;SDS011;20303;48.302;11.914;2022-11-11T05:09:25;2.78;;;2.40;;
29414;SDS011;20303;48.302;11.914;2022-11-11T05:19:26;2.67;;;2.17;;
29414;SDS011;20303;48.302;11.914;2022-11-11T05:29:46;2.50;;;2.30;;
29414;SDS011;20303;48.302;11.914;2022-11-11T05:39:47;2.80;;;2.20;;
29414;SDS011;20303;48.302;11.914;2022-11-11T05:49:48;2.53;;;2.03;;
29414;SDS011;20303;48.302;11.914;2022-11-11T05:59:49;3.00;;;2.08;;
29414;SDS011;20303;48.302;11.914;2022-11-11T06:09:50;3.75;;;2.17;;
29414;SDS011;20303;48.302;11.914;2022-11-11T06:20:11;3.00;;;2.10;;
29414;SDS011;20303;48.302;11.914;2022-11-11T06:30:13;4.63;;;2.33;;
29414;SDS011;20303;48.302;11.914;2022-11-11T06:40:14;3.55;;;2.30;;
29414;SDS011;20303;48.302;11.914;2022-11-11T06:50:15;4.90;;;2.15;;
29414;SDS011;20303;48.302;11.914;2022-11-11T07:00:16;6.05;;;2.30;;
29414;SDS011;20303;48.302;11.914;2022-11-11T07:10:17;5.70;;;2.22;;
29414;SDS011;20303;48.302;11.914;2022-11-11T07:20:19;4.15;;;2.60;;
29414;SDS011;20303;48.302;11.914;2022-11-11T07:30:20;4.57;;;2.40;;
29414;SDS011;20303;48.302;11.914;2022-11-11T07:40:21;6.75;;;2.70;;
29414;SDS011;20303;48.302;11.914;2022-11-11T07:50:22;8.05;;;2.83;;
29414;SDS011;20303;48.302;11.914;2022-11-11T08:00:24;4.78;;;2.85;;
29414;SDS011;20303;48.302;11.914;2022-11-11T08:10:25;5.97;;;2.90;;
29414;SDS011;20303;48.302;11.914;2022-11-11T08:20:26;7.50;;;2.85;;
29414;SDS011;20303;48.302;11.914;2022-11-11T08:30:27;8.40;;;3.58;;
29414;SDS011;20303;48.302;11.914;2022-11-11T08:40:28;7.90;;;3.50;;
29414;SDS011;20303;48.302;11.914;2022-11-11T08:50:29;8.35;;;3.53;;
29414;SDS011;20303;48.302;11.914;2022-11-11T09:00:31;6.90;;;3.78;;
29414;SDS011;20303;48.302;11.914;2022-11-11T09:10:33;5.47;;;3.22;;
29414;SDS011;20303;48.302;11.914;2022-11-11T09:20:34;6.05;;;3.47;;
29414;SDS011;20303;48.302;11.914;2022-11-11T09:30:36;5.72;;;3.50;;
29414;SDS011;20303;48.302;11.914;2022-11-11T09:40:48;5.57;;;3.13;;
29414;SDS011;20303;48.302;11.914;2022-11-11T09:51:16;5.50;;;3.40;;
29414;SDS011;20303;48.302;11.914;2022-11-11T10:01:22;6.70;;;3.20;;
29414;SDS011;20303;48.302;11.914;2022-11-11T10:21:44;5.93;;;3.00;;
29414;SDS011;20303;48.302;11.914;2022-11-11T10:32:04;5.57;;;2.75;;
29414;SDS011;20303;48.302;11.914;2022-11-11T10:42:16;6.97;;;2.95;;
29414;SDS011;20303;48.302;11.914;2022-11-11T10:52:19;5.85;;;2.67;;
29414;SDS011;20303;48.302;11.914;2022-11-11T11:02:25;6.05;;;3.03;;
29414;SDS011;20303;48.302;11.914;2022-11-11T11:12:36;5.60;;;3.00;;
29414;SDS011;20303;48.302;11.914;2022-11-11T11:22:45;11.63;;;3.13;;
29414;SDS011;20303;48.302;11.914;2022-11-11T11:32:57;5.15;;;2.75;;
29414;SDS011;20303;48.302;11.914;2022-11-11T11:42:59;8.50;;;3.20;;
29414;SDS011;20303;48.302;11.914;2022-11-11T11:53:21;7.88;;;3.08;;
29414;SDS011;20303;48.302;11.914;2022-11-11T12:24:48;8.33;;;3.30;;
29414;SDS011;20303;48.302;11.914;2022-11-11T12:35:05;6.28;;;3.10;;
29414;SDS011;20303;48.302;11.914;2022-11-11T12:45:23;7.97;;;3.17;;
29414;SDS011;20303;48.302;11.914;2022-11-11T13:06:12;6.18;;;2.90;;
29414;SDS011;20303;48.302;11.914;2022-11-11T13:16:23;6.07;;;2.90;;
29414;SDS011;20303;48.302;11.914;2022-11-11T13:26:36;6.97;;;2.70;;
29414;SDS011;20303;48.302;11.914;2022-11-11T13:36:49;4.60;;;2.70;;
29414;SDS011;20303;48.302;11.914;2022-11-11T13:46:56;5.53;;;2.50;;
29414;SDS011;20303;48.302;11.914;2022-11-11T14:07:39;9.33;;;2.93;;
29414;SDS011;20303;48.302;11.914;2022-11-11T14:17:46;6.38;;;2.55;;
29414;SDS011;20303;48.302;11.914;2022-11-11T14:27:47;4.95;;;2.50;;
29414;SDS011;20303;48.302;11.914;2022-11-11T14:38:03;8.18;;;3.10;;
29414;SDS011;20303;48.302;11.914;2022-11-11T14:58:51;5.15;;;2.70;;
29414;SDS011;20303;48.302;11.914;2022-11-11T15:29:44;5.38;;;2.53;;
29414;SDS011;20303;48.302;11.914;2022-11-11T15:39:48;4.65;;;2.20;;
29414;SDS011;20303;48.302;11.914;2022-11-11T15:49:54;7.45;;;2.75;;
29414;SDS011;20303;48.302;11.914;2022-11-11T15:59:56;8.00;;;2.35;;
29414;SDS011;20303;48.302;11.914;2022-11-11T16:10:14;5.05;;;2.70;;
29414;SDS011;20303;48.302;11.914;2022-11-11T16:20:29;7.13;;;2.60;;
29414;SDS011;20303;48.302;11.914;2022-11-11T16:30:39;7.82;;;2.50;;
29414;SDS011;20303;48.302;11.914;2022-11-11T16:40:41;6.03;;;2.42;;
29414;SDS011;20303;48.302;11.914;2022-11-11T16:50:53;6.88;;;2.53;;
29414;SDS011;20303;48.302;11.914;2022-11-11T17:00:59;6.28;;;2.60;;
29414;SDS011;20303;48.302;11.914;2022-11-11T17:11:41;6.38;;;2.55;;
29414;SDS011;20303;48.302;11.914;2022-11-11T17:21:38;7.40;;;2.70;;
29414;SDS011;20303;48.302;11.914;2022-11-11T17:31:39;5.68;;;2.80;;
29414;SDS011;20303;48.302;11.914;2022-11-11T17:41:40;5.93;;;2.60;;
29414;SDS011;20303;48.302;11.914;2022-11-11T17:51:42;4.75;;;2.60;;
29414;SDS011;20303;48.302;11.914;2022-11-11T18:01:43;4.80;;;2.53;;
29414;SDS011;20303;48.302;11.914;2022-11-11T18:11:44;5.38;;;2.90;;
29414;SDS011;20303;48.302;11.914;2022-11-11T18:21:45;4.72;;;2.67;;
29414;SDS011;20303;48.302;11.914;2022-11-11T18:31:46;5.70;;;2.55;;
29414;SDS011;20303;48.302;11.914;2022-11-11T18:41:47;5.25;;;2.80;;
29414;SDS011;20303;48.302;11.914;2022-11-11T18:51:48;4.00;;;2.53;;
29414;SDS011;20303;48.302;11.914;2022-11-11T19:01:49;4.20;;;2.88;;
29414;SDS011;20303;48.302;11.914;2022-11-11T19:11:50;7.65;;;3.05;;
29414;SDS011;20303;48.302;11.914;2022-11-11T19:21:51;5.15;;;3.25;;
29414;SDS011;20303;48.302;11.914;2022-11-11T19:31:53;4.85;;;2.80;;
29414;SDS011;20303;48.302;11.914;2022-11-11T19:41:54;5.00;;;2.80;;
29414;SDS011;20303;48.302;11.914;2022-11-11T19:51:55;7.88;;;3.08;;
29414;SDS011;20303;48.302;11.914;2022-11-11T20:01:56;6.18;;;3.20;;
29414;SDS011;20303;48.302;11.914;2022-11-11T20:11:57;6.40;;;3.15;;
29414;SDS011;20303;48.302;11.914;2022-11-11T20:21:58;4.80;;;3.30;;
29414;SDS011;20303;48.302;11.914;2022-11-11T20:32:04;4.78;;;3.22;;
29414;SDS011;20303;48.302;11.914;2022-11-11T20:42:05;7.00;;;3.42;;
29414;SDS011;20303;48.302;11.914;2022-11-11T20:52:06;7.60;;;3.70;;
29414;SDS011;20303;48.302;11.914;2022-11-11T21:02:08;8.15;;;3.47;;
29414;SDS011;20303;48.302;11.914;2022-11-11T21:12:09;8.13;;;4.00;;
29414;SDS011;20303;48.302;11.914;2022-11-11T21:22:10;6.35;;;4.03;;
29414;SDS011;20303;48.302;11.914;2022-11-11T21:32:11;6.70;;;4.07;;
29414;SDS011;20303;48.302;11.914;2022-11-11T21:42:13;7.65;;;4.57;;
29414;SDS011;20303;48.302;11.914;2022-11-11T21:52:14;7.35;;;4.47;;
29414;SDS011;20303;48.302;11.914;2022-11-11T22:02:15;14.82;;;5.35;;
29414;SDS011;20303;48.302;11.914;2022-11-11T22:12:16;9.45;;;5.00;;
29414;SDS011;20303;48.302;11.914;2022-11-11T22:22:17;9.15;;;4.80;;
29414;SDS011;20303;48.302;11.914;2022-11-11T22:32:18;7.78;;;4.85;;
29414;SDS011;20303;48.302;11.914;2022-11-11T22:42:19;8.90;;;4.90;;
29414;SDS011;20303;48.302;11.914;2022-11-11T22:52:20;10.70;;;5.60;;
29414;SDS011;20303;48.302;11.914;2022-11-11T23:02:21;9.30;;;5.20;;
29414;SDS011;20303;48.302;11.914;2022-11-11T23:12:22;9.38;;;5.55;;
29414;SDS011;20303;48.302;11.914;2022-11-11T23:22:23;7.00;;;5.00;;
29414;SDS011;20303;48.302;11.914;2022-11-11T23:32:24;8.00;;;5.30;;
29414;SDS011;20303;48.302;11.914;2022-11-11T23:42:25;7.32;;;5.03;;
29414;SDS011;20303;48.302;11.914;2022-11-11T23:52:26;11.10;;;5.40;;
